sensor_id;sensor_type;location;lat;lon;timestamp;pressure;altitude;pressure_sealevel;temperature;humidity
10668;BME280;5382;42.136;24.796;2022-11-20T00:02:17;99331.47;;;13.81;100.00
10668;BME280;5382;42.136;24.796;2022-11-20T00:04:44;99321.97;;;13.78;100.00
10668;BME280;5382;42.136;24.796;2022-11-20T00:07:11;99326.72;;;13.84;100.00
10668;BME280;5382;42.136;24.796;2022-11-20T00:09:38;99318.44;;;13.87;100.00
10668;BME280;5382;42.136;24.796;2022-11-20T00:12:05;99319.69;;;13.93;100.00
10668;BME280;5382;42.136;24.796;2022-11-20T00:14:31;99321.81;;;13.89;100.00
10668;BME280;5382;42.136;24.796;2022-11-20T00:17:00;99305.28;;;13.86;100.00
10668;BME280;5382;42.136;24.796;2022-11-20T00:19:27;99311.91;;;13.82;100.00
10668;BME280;5382;42.136;24.796;2022-11-20T00:21:53;99298.69;;;13.90;100.00
10668;BME280;5382;42.136;24.796;2022-11-20T00:24:20;99226.66;;;13.46;100.00
10668;BME280;5382;42.136;24.796;2022-11-20T00:26:47;99303.03;;;13.91;100.00
10668;BME280;5382;42.136;24.796;2022-11-20T00:29:14;99319.28;;;13.88;100.00
10668;BME280;5382;42.136;24.796;2022-11-20T00:31:41;99316.63;;;13.88;100.00
10668;BME280;5382;42.136;24.796;2022-11-20T00:34:10;99327.81;;;13.91;100.00
10668;BME280;5382;42.136;24.796;2022-11-20T00:36:36;99312.53;;;13.93;100.00
10668;BME280;5382;42.136;24.796;2022-11-20T00:39:03;99311.88;;;13.91;100.00
10668;BME280;5382;42.136;24.796;2022-11-20T00:41:30;99296.00;;;14.00;100.00
10668;BME280;5382;42.136;24.796;2022-11-20T00:43:57;99308.22;;;13.92;100.00
10668;BME280;5382;42.136;24.796;2022-11-20T00:46:25;99316.91;;;13.85;100.00
10668;BME280;5382;42.136;24.796;2022-11-20T00:48:53;99307.69;;;13.89;100.00
10668;BME280;5382;42.136;24.796;2022-11-20T00:51:23;99312.69;;;13.92;100.00
10668;BME280;5382;42.136;24.796;2022-11-20T00:53:50;99293.28;;;13.82;100.00
10668;BME280;5382;42.136;24.796;2022-11-20T00:56:18;99332.00;;;13.94;100.00
10668;BME280;5382;42.136;24.796;2022-11-20T00:58:46;99328.94;;;13.89;100.00
10668;BME280;5382;42.136;24.796;2022-11-20T01:01:15;99313.56;;;13.83;100.00
10668;BME280;5382;42.136;24.796;2022-11-20T01:03:44;99303.19;;;13.89;100.00
10668;BME280;5382;42.136;24.796;2022-11-20T01:06:13;99288.75;;;13.55;100.00
10668;BME280;5382;42.136;24.796;2022-11-20T01:08:42;99271.97;;;13.54;100.00
10668;BME280;5382;42.136;24.796;2022-11-20T01:11:10;99320.56;;;13.84;100.00
10668;BME280;5382;42.136;24.796;2022-11-20T01:13:38;99311.59;;;13.85;100.00
10668;BME280;5382;42.136;24.796;2022-11-20T01:16:07;99315.78;;;13.87;100.00
10668;BME280;5382;42.136;24.796;2022-11-20T01:18:34;99316.31;;;13.91;100.00
10668;BME280;5382;42.136;24.796;2022-11-20T01:21:03;99304.72;;;13.92;100.00
10668;BME280;5382;42.136;24.796;2022-11-20T01:23:32;99273.88;;;13.71;100.00
10668;BME280;5382;42.136;24.796;2022-11-20T01:26:01;99304.75;;;13.82;100.00
10668;BME280;5382;42.136;24.796;2022-11-20T01:28:29;99304.63;;;13.84;100.00
10668;BME280;5382;42.136;24.796;2022-11-20T01:30:56;99296.06;;;13.80;100.00
10668;BME280;5382;42.136;24.796;2022-11-20T01:33:23;99294.41;;;13.79;100.00
10668;BME280;5382;42.136;24.796;2022-11-20T01:35:50;99286.31;;;13.71;100.00
10668;BME280;5382;42.136;24.796;2022-11-20T01:38:17;99284.50;;;13.71;100.00
10668;BME280;5382;42.136;24.796;2022-11-20T01:40:45;99287.00;;;13.73;100.00
10668;BME280;5382;42.136;24.796;2022-11-20T01:43:16;99280.84;;;13.72;100.00
10668;BME280;5382;42.136;24.796;2022-11-20T01:46:12;99282.00;;;13.60;100.00
10668;BME280;5382;42.136;24.796;2022-11-20T01:48:45;99280.00;;;13.72;100.00
10668;BME280;5382;42.136;24.796;2022-11-20T01:51:19;99269.91;;;13.75;100.00
10668;BME280;5382;42.136;24.796;2022-11-20T01:53:48;99261.81;;;13.77;100.00
10668;BME280;5382;42.136;24.796;2022-11-20T01:56:16;99258.16;;;13.78;100.00
10668;BME280;5382;42.136;24.796;2022-11-20T01:58:48;99263.75;;;13.75;100.00
10668;BME280;5382;42.136;24.796;2022-11-20T02:01:17;99271.63;;;13.67;100.00
10668;BME280;5382;42.136;24.796;2022-11-20T02:03:44;99255.72;;;13.57;100.00
10668;BME280;5382;42.136;24.796;2022-11-20T02:06:16;99246.59;;;13.60;100.00
10668;BME280;5382;42.136;24.796;2022-11-20T02:08:44;99260.50;;;13.53;100.00
10668;BME280;5382;42.136;24.796;2022-11-20T02:11:10;99265.94;;;13.52;100.00
10668;BME280;5382;42.136;24.796;2022-11-20T02:13:39;99254.19;;;13.55;100.00
10668;BME280;5382;42.136;24.796;2022-11-20T02:16:24;99222.22;;;13.37;100.00
10668;BME280;5382;42.136;24.796;2022-11-20T02:18:53;99252.09;;;13.58;100.00
10668;BME280;5382;42.136;24.796;2022-11-20T02:21:35;99251.53;;;13.45;100.00
10668;BME280;5382;42.136;24.796;2022-11-20T02:24:07;99247.81;;;13.38;100.00
10668;BME280;5382;42.136;24.796;2022-11-20T02:26:39;99240.69;;;13.38;100.00
10668;BME280;5382;42.136;24.796;2022-11-20T02:29:07;99236.31;;;13.47;100.00
10668;BME280;5382;42.136;24.796;2022-11-20T02:31:39;99241.47;;;13.48;100.00
10668;BME280;5382;42.136;24.796;2022-11-20T02:34:06;99237.84;;;13.49;100.00
10668;BME280;5382;42.136;24.796;2022-11-20T02:36:34;99237.69;;;13.51;100.00
10668;BME280;5382;42.136;24.796;2022-11-20T02:39:02;99241.06;;;13.53;100.00
10668;BME280;5382;42.136;24.796;2022-11-20T02:41:34;99240.09;;;13.44;100.00
10668;BME280;5382;42.136;24.796;2022-11-20T02:44:03;99212.16;;;13.40;100.00
10668;BME280;5382;42.136;24.796;2022-11-20T02:46:30;99232.53;;;13.49;100.00
10668;BME280;5382;42.136;24.796;2022-11-20T02:48:57;99221.09;;;13.39;100.00
10668;BME280;5382;42.136;24.796;2022-11-20T02:51:24;99232.41;;;13.41;100.00
10668;BME280;5382;42.136;24.796;2022-11-20T02:53:51;99210.44;;;13.39;100.00
10668;BME280;5382;42.136;24.796;2022-11-20T02:56:17;99224.19;;;13.25;100.00
10668;BME280;5382;42.136;24.796;2022-11-20T02:58:46;99231.75;;;13.29;100.00
10668;BME280;5382;42.136;24.796;2022-11-20T03:01:13;99233.13;;;13.34;100.00
10668;BME280;5382;42.136;24.796;2022-11-20T03:03:40;99223.91;;;13.38;100.00
10668;BME280;5382;42.136;24.796;2022-11-20T03:06:07;99225.84;;;13.36;100.00
10668;BME280;5382;42.136;24.796;2022-11-20T03:08:34;99230.03;;;13.38;100.00
10668;BME280;5382;42.136;24.796;2022-11-20T03:11:05;99233.94;;;13.44;100.00
10668;BME280;5382;42.136;24.796;2022-11-20T03:13:32;99219.84;;;13.34;100.00
10668;BME280;5382;42.136;24.796;2022-11-20T03:16:09;99235.03;;;13.51;100.00
10668;BME280;5382;42.136;24.796;2022-11-20T03:18:36;99226.78;;;13.54;100.00
10668;BME280;5382;42.136;24.796;2022-11-20T03:21:04;99230.75;;;13.40;100.00
10668;BME280;5382;42.136;24.796;2022-11-20T03:23:33;99229.47;;;13.44;100.00
10668;BME280;5382;42.136;24.796;2022-11-20T03:26:11;99216.16;;;13.44;100.00
10668;BME280;5382;42.136;24.796;2022-11-20T03:28:38;99207.22;;;13.45;100.00
10668;BME280;5382;42.136;24.796;2022-11-20T03:31:09;99208.91;;;13.37;100.00
10668;BME280;5382;42.136;24.796;2022-11-20T03:33:36;99218.88;;;13.35;100.00
10668;BME280;5382;42.136;24.796;2022-11-20T03:36:04;99219.00;;;13.33;100.00
10668;BME280;5382;42.136;24.796;2022-11-20T03:38:32;99213.50;;;13.44;100.00
10668;BME280;5382;42.136;24.796;2022-11-20T03:41:00;99214.19;;;13.56;100.00
10668;BME280;5382;42.136;24.796;2022-11-20T03:43:27;99218.81;;;13.54;100.00
10668;BME280;5382;42.136;24.796;2022-11-20T03:45:54;99224.66;;;13.58;100.00
10668;BME280;5382;42.136;24.796;2022-11-20T03:48:22;99223.69;;;13.59;100.00
10668;BME280;5382;42.136;24.796;2022-11-20T03:50:49;99211.19;;;13.69;100.00
10668;BME280;5382;42.136;24.796;2022-11-20T03:53:16;99217.00;;;13.82;100.00
10668;BME280;5382;42.136;24.796;2022-11-20T03:55:43;99201.56;;;13.86;100.00
10668;BME280;5382;42.136;24.796;2022-11-20T03:58:10;99206.44;;;13.90;100.00
10668;BME280;5382;42.136;24.796;2022-11-20T04:00:38;99218.66;;;14.11;100.00
10668;BME280;5382;42.136;24.796;2022-11-20T04:03:05;99231.81;;;14.12;100.00
10668;BME280;5382;42.136;24.796;2022-11-20T04:05:34;99224.66;;;14.13;100.00
10668;BME280;5382;42.136;24.796;2022-11-20T04:08:01;99235.84;;;14.16;100.00
10668;BME280;5382;42.136;24.796;2022-11-20T04:10:28;99229.38;;;14.19;100.00
10668;BME280;5382;42.136;24.796;2022-11-20T04:12:55;99222.16;;;14.29;100.00
10668;BME280;5382;42.136;24.796;2022-11-20T04:15:22;99217.09;;;14.36;100.00
10668;BME280;5382;42.136;24.796;2022-11-20T04:17:48;99216.09;;;14.37;100.00
10668;BME280;5382;42.136;24.796;2022-11-20T04:20:15;99222.03;;;14.31;100.00
10668;BME280;5382;42.136;24.796;2022-11-20T04:22:43;99248.34;;;14.34;100.00
10668;BME280;5382;42.136;24.796;2022-11-20T04:25:10;99233.13;;;14.26;100.00
10668;BME280;5382;42.136;24.796;2022-11-20T04:27:37;99209.94;;;14.36;100.00
10668;BME280;5382;42.136;24.796;2022-11-20T04:30:05;99215.19;;;14.46;100.00
10668;BME280;5382;42.136;24.796;2022-11-20T04:32:32;99233.56;;;14.39;100.00
10668;BME280;5382;42.136;24.796;2022-11-20T04:34:59;99237.75;;;14.24;100.00
10668;BME280;5382;42.136;24.796;2022-11-20T04:37:25;99214.63;;;14.43;100.00
10668;BME280;5382;42.136;24.796;2022-11-20T04:39:53;99209.13;;;14.54;100.00
10668;BME280;5382;42.136;24.796;2022-11-20T04:42:20;99234.06;;;14.53;100.00
10668;BME280;5382;42.136;24.796;2022-11-20T04:44:57;99226.94;;;14.53;100.00
10668;BME280;5382;42.136;24.796;2022-11-20T04:47:23;99240.09;;;14.55;100.00
10668;BME280;5382;42.136;24.796;2022-11-20T04:49:50;99235.59;;;14.55;100.00
10668;BME280;5382;42.136;24.796;2022-11-20T04:52:17;99220.06;;;14.51;100.00
10668;BME280;5382;42.136;24.796;2022-11-20T04:54:44;99210.81;;;14.55;100.00
10668;BME280;5382;42.136;24.796;2022-11-20T04:57:14;99220.91;;;14.51;100.00
10668;BME280;5382;42.136;24.796;2022-11-20T04:59:41;99230.47;;;14.44;100.00
10668;BME280;5382;42.136;24.796;2022-11-20T05:02:09;99241.56;;;14.39;100.00
10668;BME280;5382;42.136;24.796;2022-11-20T05:04:35;99234.41;;;14.40;100.00
10668;BME280;5382;42.136;24.796;2022-11-20T05:07:03;99228.72;;;14.35;100.00
10668;BME280;5382;42.136;24.796;2022-11-20T05:09:30;99226.66;;;14.47;100.00
10668;BME280;5382;42.136;24.796;2022-11-20T05:11:57;99234.53;;;14.48;100.00
10668;BME280;5382;42.136;24.796;2022-11-20T05:14:25;99234.78;;;14.45;100.00
10668;BME280;5382;42.136;24.796;2022-11-20T05:16:51;99241.56;;;14.39;100.00
10668;BME280;5382;42.136;24.796;2022-11-20T05:19:18;99253.75;;;14.42;100.00
10668;BME280;5382;42.136;24.796;2022-11-20T05:21:45;99244.63;;;14.45;100.00
10668;BME280;5382;42.136;24.796;2022-11-20T05:24:12;99212.75;;;14.35;100.00
10668;BME280;5382;42.136;24.796;2022-11-20T05:26:39;99244.84;;;14.51;100.00
10668;BME280;5382;42.136;24.796;2022-11-20T05:29:05;99233.97;;;14.45;100.00
10668;BME280;5382;42.136;24.796;2022-11-20T05:31:33;99238.59;;;14.43;100.00
10668;BME280;5382;42.136;24.796;2022-11-20T05:34:01;99232.81;;;14.47;100.00
10668;BME280;5382;42.136;24.796;2022-11-20T05:36:28;99225.94;;;14.54;100.00
10668;BME280;5382;42.136;24.796;2022-11-20T05:38:56;99223.81;;;14.58;100.00
10668;BME280;5382;42.136;24.796;2022-11-20T05:41:23;99241.19;;;14.52;100.00
10668;BME280;5382;42.136;24.796;2022-11-20T05:43:50;99264.16;;;14.35;100.00
10668;BME280;5382;42.136;24.796;2022-11-20T05:46:18;99239.06;;;14.38;100.00
10668;BME280;5382;42.136;24.796;2022-11-20T05:48:47;99217.16;;;14.44;100.00
10668;BME280;5382;42.136;24.796;2022-11-20T05:51:17;99223.31;;;14.27;100.00
10668;BME280;5382;42.136;24.796;2022-11-20T05:53:44;99245.63;;;14.44;100.00
10668;BME280;5382;42.136;24.796;2022-11-20T05:56:13;99270.53;;;14.43;100.00
10668;BME280;5382;42.136;24.796;2022-11-20T05:58:41;99247.94;;;14.29;100.00
10668;BME280;5382;42.136;24.796;2022-11-20T06:01:10;99261.41;;;14.45;100.00
10668;BME280;5382;42.136;24.796;2022-11-20T06:03:38;99268.44;;;14.46;100.00
10668;BME280;5382;42.136;24.796;2022-11-20T06:06:07;99257.69;;;14.38;100.00
10668;BME280;5382;42.136;24.796;2022-11-20T06:08:34;99246.06;;;14.39;100.00
10668;BME280;5382;42.136;24.796;2022-11-20T06:11:03;99229.00;;;14.32;100.00
10668;BME280;5382;42.136;24.796;2022-11-20T06:13:30;99285.28;;;14.37;100.00
10668;BME280;5382;42.136;24.796;2022-11-20T06:15:57;99248.84;;;14.37;100.00
10668;BME280;5382;42.136;24.796;2022-11-20T06:18:26;99265.91;;;14.45;100.00
10668;BME280;5382;42.136;24.796;2022-11-20T06:20:59;99259.94;;;14.60;100.00
10668;BME280;5382;42.136;24.796;2022-11-20T06:23:29;99249.16;;;14.62;100.00
10668;BME280;5382;42.136;24.796;2022-11-20T06:25:56;99265.50;;;14.67;100.00
10668;BME280;5382;42.136;24.796;2022-11-20T06:28:23;99254.59;;;14.78;100.00
10668;BME280;5382;42.136;24.796;2022-11-20T06:30:50;99288.16;;;14.89;100.00
10668;BME280;5382;42.136;24.796;2022-11-20T06:33:17;99303.84;;;14.92;100.00
10668;BME280;5382;42.136;24.796;2022-11-20T06:35:44;99294.88;;;14.93;100.00
10668;BME280;5382;42.136;24.796;2022-11-20T06:38:13;99284.97;;;15.03;100.00
10668;BME280;5382;42.136;24.796;2022-11-20T06:40:41;99295.69;;;15.12;100.00
10668;BME280;5382;42.136;24.796;2022-11-20T06:43:09;99285.25;;;15.18;100.00
10668;BME280;5382;42.136;24.796;2022-11-20T06:45:37;99274.97;;;15.23;100.00
10668;BME280;5382;42.136;24.796;2022-11-20T06:48:04;99265.50;;;15.29;100.00
10668;BME280;5382;42.136;24.796;2022-11-20T06:50:31;99278.38;;;15.34;100.00
10668;BME280;5382;42.136;24.796;2022-11-20T06:53:00;99306.19;;;15.31;100.00
10668;BME280;5382;42.136;24.796;2022-11-20T06:55:27;99300.16;;;15.29;100.00
10668;BME280;5382;42.136;24.796;2022-11-20T06:57:56;99302.00;;;15.29;100.00
10668;BME280;5382;42.136;24.796;2022-11-20T07:00:23;99294.50;;;15.32;100.00
10668;BME280;5382;42.136;24.796;2022-11-20T07:02:49;99295.19;;;15.34;100.00
10668;BME280;5382;42.136;24.796;2022-11-20T07:05:16;99288.34;;;15.32;100.00
10668;BME280;5382;42.136;24.796;2022-11-20T07:07:43;99290.00;;;15.33;100.00
10668;BME280;5382;42.136;24.796;2022-11-20T07:10:11;99286.88;;;15.37;100.00
10668;BME280;5382;42.136;24.796;2022-11-20T07:12:38;99288.72;;;15.37;100.00
10668;BME280;5382;42.136;24.796;2022-11-20T07:15:08;99287.56;;;15.39;100.00
10668;BME280;5382;42.136;24.796;2022-11-20T07:17:35;99285.59;;;15.41;100.00
10668;BME280;5382;42.136;24.796;2022-11-20T07:20:02;99306.91;;;15.41;100.00
10668;BME280;5382;42.136;24.796;2022-11-20T07:22:29;99303.38;;;15.41;100.00
10668;BME280;5382;42.136;24.796;2022-11-20T07:24:56;99285.31;;;15.53;100.00
10668;BME280;5382;42.136;24.796;2022-11-20T07:27:23;99306.34;;;15.56;100.00
10668;BME280;5382;42.136;24.796;2022-11-20T07:29:49;99314.00;;;15.59;100.00
10668;BME280;5382;42.136;24.796;2022-11-20T07:32:17;99310.56;;;15.66;100.00
10668;BME280;5382;42.136;24.796;2022-11-20T07:34:44;99313.09;;;15.68;100.00
10668;BME280;5382;42.136;24.796;2022-11-20T07:37:11;99312.66;;;15.73;100.00
10668;BME280;5382;42.136;24.796;2022-11-20T07:39:38;99315.81;;;15.76;100.00
10668;BME280;5382;42.136;24.796;2022-11-20T07:42:05;99318.50;;;15.76;100.00
10668;BME280;5382;42.136;24.796;2022-11-20T07:44:32;99325.66;;;15.76;100.00
10668;BME280;5382;42.136;24.796;2022-11-20T07:46:59;99294.03;;;15.63;100.00
10668;BME280;5382;42.136;24.796;2022-11-20T07:49:27;99321.91;;;15.95;100.00
10668;BME280;5382;42.136;24.796;2022-11-20T07:51:54;99321.78;;;15.96;100.00
10668;BME280;5382;42.136;24.796;2022-11-20T07:54:21;99329.75;;;15.88;100.00
10668;BME280;5382;42.136;24.796;2022-11-20T07:56:48;99316.03;;;15.83;100.00
10668;BME280;5382;42.136;24.796;2022-11-20T07:59:15;99309.84;;;15.82;100.00
10668;BME280;5382;42.136;24.796;2022-11-20T08:01:42;99313.38;;;15.83;100.00
10668;BME280;5382;42.136;24.796;2022-11-20T08:04:09;99306.34;;;15.82;100.00
10668;BME280;5382;42.136;24.796;2022-11-20T08:06:38;99308.88;;;15.83;100.00
10668;BME280;5382;42.136;24.796;2022-11-20T08:09:04;99306.03;;;15.85;100.00
10668;BME280;5382;42.136;24.796;2022-11-20T08:11:31;99308.69;;;15.85;100.00
10668;BME280;5382;42.136;24.796;2022-11-20T08:14:15;99320.09;;;15.95;100.00
10668;BME280;5382;42.136;24.796;2022-11-20T08:16:44;99302.31;;;16.04;100.00
10668;BME280;5382;42.136;24.796;2022-11-20T08:19:11;99308.00;;;16.09;100.00
10668;BME280;5382;42.136;24.796;2022-11-20T08:21:40;99303.00;;;16.14;100.00
10668;BME280;5382;42.136;24.796;2022-11-20T08:24:07;99307.19;;;16.17;100.00
10668;BME280;5382;42.136;24.796;2022-11-20T08:26:35;99301.72;;;16.26;100.00
10668;BME280;5382;42.136;24.796;2022-11-20T08:29:03;99298.41;;;16.41;100.00
10668;BME280;5382;42.136;24.796;2022-11-20T08:31:30;99316.19;;;16.66;100.00
10668;BME280;5382;42.136;24.796;2022-11-20T08:33:57;99319.25;;;16.79;100.00
10668;BME280;5382;42.136;24.796;2022-11-20T08:36:24;99311.91;;;16.98;100.00
10668;BME280;5382;42.136;24.796;2022-11-20T08:38:54;99314.59;;;17.22;100.00
10668;BME280;5382;42.136;24.796;2022-11-20T08:41:21;99305.22;;;17.51;100.00
10668;BME280;5382;42.136;24.796;2022-11-20T08:43:54;99284.44;;;17.70;100.00
10668;BME280;5382;42.136;24.796;2022-11-20T08:46:22;99291.38;;;18.03;100.00
10668;BME280;5382;42.136;24.796;2022-11-20T08:48:49;99302.63;;;18.38;100.00
10668;BME280;5382;42.136;24.796;2022-11-20T08:51:16;99308.44;;;18.73;100.00
10668;BME280;5382;42.136;24.796;2022-11-20T08:53:43;99300.91;;;19.00;100.00
10668;BME280;5382;42.136;24.796;2022-11-20T08:56:15;99292.56;;;19.17;100.00
10668;BME280;5382;42.136;24.796;2022-11-20T08:58:42;99298.72;;;19.41;100.00
10668;BME280;5382;42.136;24.796;2022-11-20T09:01:10;99301.06;;;19.44;100.00
10668;BME280;5382;42.136;24.796;2022-11-20T09:03:40;99295.78;;;19.51;100.00
10668;BME280;5382;42.136;24.796;2022-11-20T09:06:07;99289.97;;;19.62;100.00
10668;BME280;5382;42.136;24.796;2022-11-20T09:08:34;99273.22;;;19.60;100.00
10668;BME280;5382;42.136;24.796;2022-11-20T09:11:02;99292.97;;;19.97;100.00
10668;BME280;5382;42.136;24.796;2022-11-20T09:13:31;99264.16;;;20.05;100.00
10668;BME280;5382;42.136;24.796;2022-11-20T09:16:00;99283.38;;;20.39;100.00
10668;BME280;5382;42.136;24.796;2022-11-20T09:18:27;99284.84;;;20.56;100.00
10668;BME280;5382;42.136;24.796;2022-11-20T09:20:56;99277.44;;;20.58;100.00
10668;BME280;5382;42.136;24.796;2022-11-20T09:23:24;99263.44;;;20.48;100.00
10668;BME280;5382;42.136;24.796;2022-11-20T09:25:51;99280.50;;;20.55;100.00
10668;BME280;5382;42.136;24.796;2022-11-20T09:28:21;99264.56;;;20.75;100.00
10668;BME280;5382;42.136;24.796;2022-11-20T09:30:49;99265.72;;;20.87;100.00
10668;BME280;5382;42.136;24.796;2022-11-20T09:33:15;99262.47;;;20.92;100.00
10668;BME280;5382;42.136;24.796;2022-11-20T09:35:43;99235.56;;;20.92;100.00
10668;BME280;5382;42.136;24.796;2022-11-20T09:38:11;99212.56;;;20.89;100.00
10668;BME280;5382;42.136;24.796;2022-11-20T09:40:43;99238.28;;;21.20;100.00
10668;BME280;5382;42.136;24.796;2022-11-20T09:43:15;99232.22;;;21.40;100.00
10668;BME280;5382;42.136;24.796;2022-11-20T09:45:56;99210.81;;;21.31;100.00
10668;BME280;5382;42.136;24.796;2022-11-20T09:51:34;99207.56;;;21.71;100.00
10668;BME280;5382;42.136;24.796;2022-11-20T09:54:13;99199.56;;;21.84;100.00
10668;BME280;5382;42.136;24.796;2022-11-20T09:56:43;99199.34;;;21.86;100.00
10668;BME280;5382;42.136;24.796;2022-11-20T09:59:22;99198.03;;;22.16;100.00
10668;BME280;5382;42.136;24.796;2022-11-20T10:01:54;99205.53;;;22.21;100.00
10668;BME280;5382;42.136;24.796;2022-11-20T10:04:44;99211.78;;;22.35;100.00
10668;BME280;5382;42.136;24.796;2022-11-20T10:07:17;99203.75;;;22.55;100.00
10668;BME280;5382;42.136;24.796;2022-11-20T10:09:51;99207.50;;;22.67;100.00
10668;BME280;5382;42.136;24.796;2022-11-20T10:12:27;99206.69;;;22.67;100.00
10668;BME280;5382;42.136;24.796;2022-11-20T10:15:11;99210.41;;;22.59;100.00
10668;BME280;5382;42.136;24.796;2022-11-20T10:18:06;99198.09;;;22.43;100.00
10668;BME280;5382;42.136;24.796;2022-11-20T10:20:43;99198.94;;;22.37;100.00
10668;BME280;5382;42.136;24.796;2022-11-20T10:23:39;99202.03;;;22.40;100.00
10668;BME280;5382;42.136;24.796;2022-11-20T10:26:17;99198.75;;;22.45;100.00
10668;BME280;5382;42.136;24.796;2022-11-20T10:28:57;99192.94;;;22.55;100.00
10668;BME280;5382;42.136;24.796;2022-11-20T10:31:30;99185.09;;;22.60;100.00
10668;BME280;5382;42.136;24.796;2022-11-20T10:34:03;99174.28;;;22.53;100.00
10668;BME280;5382;42.136;24.796;2022-11-20T10:36:35;99184.66;;;22.63;100.00
10668;BME280;5382;42.136;24.796;2022-11-20T10:39:07;99180.94;;;22.64;100.00
10668;BME280;5382;42.136;24.796;2022-11-20T10:41:41;99180.94;;;22.64;100.00
10668;BME280;5382;42.136;24.796;2022-11-20T10:44:14;99172.66;;;22.59;100.00
10668;BME280;5382;42.136;24.796;2022-11-20T10:47:01;99167.41;;;22.37;100.00
10668;BME280;5382;42.136;24.796;2022-11-20T10:49:32;99158.69;;;22.22;100.00
10668;BME280;5382;42.136;24.796;2022-11-20T10:52:05;99153.28;;;22.22;100.00
10668;BME280;5382;42.136;24.796;2022-11-20T10:54:40;99148.66;;;22.09;100.00
10668;BME280;5382;42.136;24.796;2022-11-20T10:57:20;99147.19;;;22.00;100.00
10668;BME280;5382;42.136;24.796;2022-11-20T10:59:59;99146.16;;;21.94;100.00
10668;BME280;5382;42.136;24.796;2022-11-20T11:02:34;99156.03;;;21.81;100.00
10668;BME280;5382;42.136;24.796;2022-11-20T11:05:11;99151.69;;;21.80;100.00
10668;BME280;5382;42.136;24.796;2022-11-20T11:07:42;99147.47;;;21.64;100.00
10668;BME280;5382;42.136;24.796;2022-11-20T11:10:16;99147.63;;;21.49;100.00
10668;BME280;5382;42.136;24.796;2022-11-20T11:12:45;99145.47;;;21.38;100.00
10668;BME280;5382;42.136;24.796;2022-11-20T11:15:14;99135.94;;;21.35;100.00
10668;BME280;5382;42.136;24.796;2022-11-20T11:17:46;99125.78;;;21.37;100.00
10668;BME280;5382;42.136;24.796;2022-11-20T11:20:19;99119.78;;;21.35;100.00
10668;BME280;5382;42.136;24.796;2022-11-20T11:22:49;99111.84;;;21.27;100.00
10668;BME280;5382;42.136;24.796;2022-11-20T11:25:23;99110.31;;;21.11;100.00
10668;BME280;5382;42.136;24.796;2022-11-20T11:27:51;99111.94;;;21.05;100.00
10668;BME280;5382;42.136;24.796;2022-11-20T11:30:19;99098.00;;;20.95;100.00
10668;BME280;5382;42.136;24.796;2022-11-20T11:32:47;99090.09;;;20.87;100.00
10668;BME280;5382;42.136;24.796;2022-11-20T11:35:26;99101.19;;;20.77;100.00
10668;BME280;5382;42.136;24.796;2022-11-20T11:38:04;99102.41;;;20.75;100.00
10668;BME280;5382;42.136;24.796;2022-11-20T11:40:34;99115.47;;;20.78;100.00
10668;BME280;5382;42.136;24.796;2022-11-20T11:43:05;99100.63;;;20.82;100.00
10668;BME280;5382;42.136;24.796;2022-11-20T11:45:54;99098.84;;;20.67;100.00
10668;BME280;5382;42.136;24.796;2022-11-20T11:48:20;99112.69;;;20.64;100.00
10668;BME280;5382;42.136;24.796;2022-11-20T11:50:50;99117.31;;;20.77;100.00
10668;BME280;5382;42.136;24.796;2022-11-20T11:53:18;99115.34;;;20.86;100.00
10668;BME280;5382;42.136;24.796;2022-11-20T11:55:50;99110.44;;;20.96;100.00
10668;BME280;5382;42.136;24.796;2022-11-20T11:58:41;99109.34;;;20.90;100.00
10668;BME280;5382;42.136;24.796;2022-11-20T12:01:21;99116.84;;;20.95;100.00
10668;BME280;5382;42.136;24.796;2022-11-20T12:03:55;99113.97;;;20.97;100.00
10668;BME280;5382;42.136;24.796;2022-11-20T12:06:27;99108.41;;;21.05;100.00
10668;BME280;5382;42.136;24.796;2022-11-20T12:09:01;99112.00;;;21.12;100.00
10668;BME280;5382;42.136;24.796;2022-11-20T12:11:32;99099.56;;;21.11;100.00
10668;BME280;5382;42.136;24.796;2022-11-20T12:14:08;99102.47;;;21.09;100.00
10668;BME280;5382;42.136;24.796;2022-11-20T12:16:37;99100.13;;;21.06;100.00
10668;BME280;5382;42.136;24.796;2022-11-20T12:19:09;99092.47;;;21.03;100.00
10668;BME280;5382;42.136;24.796;2022-11-20T12:21:47;99093.28;;;21.04;100.00
10668;BME280;5382;42.136;24.796;2022-11-20T12:24:44;99089.63;;;21.11;100.00
10668;BME280;5382;42.136;24.796;2022-11-20T12:27:40;99087.13;;;21.10;100.00
10668;BME280;5382;42.136;24.796;2022-11-20T12:30:12;99090.91;;;21.16;100.00
10668;BME280;5382;42.136;24.796;2022-11-20T12:33:04;99095.88;;;21.19;100.00
10668;BME280;5382;42.136;24.796;2022-11-20T12:35:44;99081.22;;;21.28;100.00
10668;BME280;5382;42.136;24.796;2022-11-20T12:38:39;99083.72;;;21.29;100.00
10668;BME280;5382;42.136;24.796;2022-11-20T12:41:14;99080.19;;;21.29;100.00
10668;BME280;5382;42.136;24.796;2022-11-20T12:44:14;99082.47;;;21.32;100.00
10668;BME280;5382;42.136;24.796;2022-11-20T12:47:12;99072.75;;;21.31;100.00
10668;BME280;5382;42.136;24.796;2022-11-20T12:49:50;99078.78;;;21.33;100.00
10668;BME280;5382;42.136;24.796;2022-11-20T12:52:30;99078.31;;;21.23;100.00
10668;BME280;5382;42.136;24.796;2022-11-20T12:55:15;99074.97;;;21.21;100.00
10668;BME280;5382;42.136;24.796;2022-11-20T12:57:49;99084.28;;;21.18;100.00
10668;BME280;5382;42.136;24.796;2022-11-20T13:00:18;99083.63;;;21.09;100.00
10668;BME280;5382;42.136;24.796;2022-11-20T13:05:46;99083.16;;;20.99;100.00
10668;BME280;5382;42.136;24.796;2022-11-20T13:08:20;99084.78;;;20.94;100.00
10668;BME280;5382;42.136;24.796;2022-11-20T13:10:51;99088.06;;;20.89;100.00
10668;BME280;5382;42.136;24.796;2022-11-20T13:13:29;99101.28;;;20.90;100.00